Data for 11/06/2008

Time Sea-Level Adjusted Pressure Absolute Pressure Temperature Relative Humidity Dew Point   
(mb) (inHg) (mb) (inHg) (C) (F) (%) (C) (F)
00:05 1023 30.21 852 25.16 -2.8 26.9 57 -10.2 13.7
00:10 1023 30.21 852 25.16 -3 26.7 58 -10.1 13.8
00:15 1023 30.21 852 25.16 -3 26.5 58 -10.1 13.8
00:20 1023 30.21 852 25.16 -3.3 26.1 60 -9.9 14.1
00:25 1023 30.21 852 25.16 -3.5 25.7 60 -10.1 13.8
00:30 1023 30.21 852 25.16 -3.7 25.4 60 -10.3 13.5
00:35 1023 30.21 853 25.19 -3.6 25.5 59 -10.4 13.2
00:40 1023 30.21 853 25.19 -3.4 25.8 58 -10.5 13.1
00:45 1023 30.21 853 25.19 -3.3 26.1 59 -10.3 13.5
00:50 1023 30.21 853 25.19 -3.3 26 58 -10.4 13.3
00:55 1024 30.24 853 25.19 -3.4 25.9 59 -10.3 13.4
01:00 1024 30.24 853 25.19 -3.4 25.9 58 -10.4 13.2
01:05 1024 30.24 853 25.19 -3.3 26.1 58 -10.5 13.1
01:10 1024 30.24 853 25.19 -3.2 26.2 57 -10.5 13
01:15 1024 30.24 853 25.19 -3.1 26.4 57 -10.5 13
01:20 1024 30.24 853 25.19 -2.9 26.7 56 -10.6 13
01:25 1024 30.24 853 25.19 -3 26.7 56 -10.5 13
01:30 1024 30.24 853 25.19 -3 26.6 57 -10.5 13.1
01:35 1024 30.24 853 25.19 -3.4 26 61 -9.9 14.2
01:40 1024 30.24 853 25.19 -4.1 24.7 63 -10.2 13.7
01:45 1024 30.24 853 25.19 -4.1 24.6 63 -10.2 13.6
01:50 1024 30.24 853 25.19 -4.3 24.3 64 -10 14
01:55 1024 30.24 853 25.19 -4.9 23.2 67 -10.1 13.8
02:00 1024 30.24 853 25.19 -5.3 22.4 67 -10.4 13.2
02:05 1024 30.24 853 25.19 -5.1 22.8 65 -10.7 12.7
02:10 1024 30.24 853 25.19 -4.8 23.4 65 -10.3 13.4
02:15 1024 30.24 853 25.19 -4.9 23.2 66 -10.4 13.3
02:20 1024 30.24 853 25.19 -4.6 23.7 63 -10.6 13
02:25 1024 30.24 853 25.19 -4.4 24.1 63 -10.5 13.1
02:30 1024 30.24 853 25.19 -4.6 23.8 64 -10.3 13.4
02:35 1024 30.24 854 25.22 -4.7 23.5 64 -10.6 12.9
02:40 1024 30.24 854 25.22 -4.6 23.7 63 -10.5 13.1
02:45 1024 30.24 854 25.22 -4.6 23.7 64 -10.3 13.4
02:50 1024 30.24 853 25.19 -4.9 23.2 65 -10.5 13.1
02:55 1024 30.24 853 25.19 -4.9 23.1 66 -10.4 13.3
03:00 1024 30.24 854 25.22 -5 23.1 65 -10.6 12.9
03:05 1024 30.24 853 25.19 -4.8 23.3 65 -10.4 13.2
03:10 1024 30.24 853 25.19 -4.8 23.3 64 -10.5 13
03:15 1024 30.24 853 25.19 -4.7 23.5 63 -10.7 12.7
03:20 1024 30.24 853 25.19 -4.8 23.4 63 -10.8 12.6
03:25 1024 30.24 853 25.19 -5.1 22.8 68 -10.2 13.6
03:30 1024 30.24 853 25.19 -5.9 21.3 69 -10.6 12.8
03:35 1024 30.24 853 25.19 -6.2 20.9 71 -10.7 12.8
03:40 1024 30.24 853 25.19 -6.5 20.3 74 -10.4 13.3
03:45 1024 30.24 853 25.19 -6.5 20.3 73 -10.6 13
03:50 1024 30.24 854 25.22 -6.2 20.8 71 -10.7 12.7
03:55 1024 30.24 854 25.22 -6.1 20.9 70 -10.8 12.6
04:00 1024 30.24 854 25.22 -5.8 21.6 71 -10.3 13.4
04:05 1025 30.27 854 25.22 -5.7 21.8 70 -10.4 13.3
04:10 1025 30.27 854 25.22 -6 21.3 71 -10.4 13.3
04:15 1025 30.27 854 25.22 -6.3 20.7 73 -10.4 13.3
04:20 1025 30.27 854 25.22 -6.5 20.3 73 -10.5 13
04:25 1025 30.27 854 25.22 -6.5 20.4 73 -10.5 13.1
04:30 1025 30.27 854 25.22 -6.5 20.3 74 -10.4 13.3
04:35 1025 30.27 854 25.22 -6.5 20.3 74 -10.4 13.2
04:40 1025 30.27 854 25.22 -6.5 20.2 73 -10.7 12.8
04:45 1025 30.27 854 25.22 -6.4 20.6 72 -10.6 12.9
04:50 1025 30.27 854 25.22 -6.4 20.5 73 -10.5 13.1
04:55 1025 30.27 854 25.22 -6.7 20 75 -10.4 13.2
05:00 1025 30.27 854 25.22 -6.6 20.1 75 -10.4 13.3
05:05 1025 30.27 854 25.22 -6.6 20.1 74 -10.6 13
05:10 1025 30.27 854 25.22 -6.4 20.5 72 -10.5 13
05:15 1025 30.27 854 25.22 -6.3 20.7 71 -10.6 12.8
05:20 1025 30.27 855 25.25 -6.3 20.7 72 -10.6 13
05:25 1025 30.27 854 25.22 -6.2 20.8 70 -10.8 12.6
05:30 1025 30.27 854 25.22 -6.3 20.6 72 -10.6 12.9
05:35 1025 30.27 854 25.22 -6.5 20.4 73 -10.5 13.2
05:40 1025 30.27 855 25.25 -6.6 20.2 72 -10.8 12.6
05:45 1025 30.27 855 25.25 -6.6 20 73 -10.8 12.6
05:50 1025 30.27 855 25.25 -6.7 20 73 -10.8 12.5
05:55 1025 30.27 855 25.25 -6.5 20.2 72 -10.7 12.7
06:00 1026 30.3 855 25.25 -6.4 20.4 71 -10.8 12.5
06:05 1026 30.3 855 25.25 -6.4 20.4 71 -10.8 12.5
06:10 1026 30.3 855 25.25 -6.5 20.2 72 -10.7 12.7
06:15 1026 30.3 855 25.25 -6.6 20.1 71 -11 12.2
06:20 1026 30.3 855 25.25 -6.6 20.2 72 -10.8 12.5
06:25 1026 30.3 855 25.25 -6.6 20.1 71 -11 12.1
06:30 1026 30.3 855 25.25 -6.6 20.2 71 -11 12.1
06:35 1026 30.3 855 25.25 -6.7 20 71 -11.1 12
06:40 1026 30.3 855 25.25 -6.9 19.6 72 -11.2 11.9
06:45 1026 30.3 855 25.25 -7 19.3 74 -11 12.2
06:50 1026 30.3 855 25.25 -6.8 19.8 74 -10.6 12.9
06:55 1026 30.3 855 25.25 -6.7 19.9 72 -10.9 12.3
07:00 1026 30.3 855 25.25 -6.8 19.7 72 -11.1 12.1
07:05 1026 30.3 855 25.25 -6.9 19.6 73 -10.9 12.3
07:10 1026 30.3 855 25.25 -6.8 19.7 72 -11 12.2
07:15 1026 30.3 855 25.25 -6.9 19.6 71 -11.2 11.8
07:20 1026 30.3 856 25.28 -6.9 19.6 71 -11.3 11.6
07:25 1026 30.3 856 25.28 -6.9 19.5 72 -11.2 11.8
07:30 1026 30.3 856 25.28 -7 19.4 71 -11.3 11.6
07:35 1027 30.33 856 25.28 -7 19.4 72 -11.3 11.6
07:40 1027 30.33 856 25.28 -6.8 19.7 69 -11.6 11.2
07:45 1027 30.33 856 25.28 -6.5 20.2 69 -11.4 11.6
07:50 1027 30.33 856 25.28 -6.2 20.8 67 -11.5 11.3
07:55 1027 30.33 856 25.28 -6.1 21 68 -11.2 11.9
08:00 1027 30.33 856 25.28 -6.1 21.1 67 -11.3 11.7
08:05 1027 30.33 856 25.28 -5.8 21.5 66 -11.2 11.8
08:10 1027 30.33 856 25.28 -5.7 21.8 65 -11.2 11.8
08:15 1027 30.33 856 25.28 -5 22.9 63 -11 12.2
08:20 1027 30.33 856 25.28 -5.1 22.8 63 -11 12.1
08:25 1027 30.33 856 25.28 -5 22.9 63 -11 12.2
08:30 1027 30.33 856 25.28 -4.7 23.5 62 -11 12.2
08:35 1027 30.33 856 25.28 -4.3 24.2 61 -10.9 12.4
08:40 1027 30.33 856 25.28 -3.6 25.6 58 -10.8 12.6
08:45 1027 30.33 856 25.28 -3 26.7 56 -10.5 13
08:50 1027 30.33 856 25.28 -3.1 26.4 57 -10.4 13.2
08:55 1027 30.33 856 25.28 -3.4 25.9 59 -10.2 13.6
09:00 1027 30.33 856 25.28 -3.3 26.1 59 -10.2 13.6
09:05 1027 30.33 856 25.28 -2.9 26.8 58 -10.1 13.9
09:10 1027 30.33 856 25.28 -2.8 26.9 58 -9.9 14.1
09:15 1027 30.33 856 25.28 -2.5 27.4 55 -10.3 13.5
09:20 1027 30.33 856 25.28 -2.4 27.7 55 -10.2 13.7
09:25 1027 30.33 857 25.31 -2 28.4 55 -10 14.1
09:30 1027 30.33 857 25.31 -1.9 28.7 54 -9.9 14.2
09:35 1027 30.33 857 25.31 -1.5 29.4 51 -10.3 13.5
09:40 1027 30.33 857 25.31 -0.6 30.8 51 -9.7 14.6
09:45 1027 30.33 857 25.31 -0.4 31.2 50 -9.6 14.6
09:50 1028 30.36 857 25.31 -0.2 31.6 49 -9.7 14.6
09:55 1028 30.36 857 25.31 -0.2 31.7 49 -9.8 14.4
10:00 1028 30.36 857 25.31 -0.3 31.4 49 -9.8 14.4
10:05 1028 30.36 857 25.31 -0.4 31.2 49 -9.8 14.3
10:10 1028 30.36 857 25.31 0.2 32.4 46 -10 14
10:15 1028 30.36 857 25.31 0.3 32.6 46 -10.1 13.9
10:20 1028 30.36 857 25.31 0.4 32.7 45 -10.3 13.5
10:25 1028 30.36 857 25.31 0.7 33.3 45 -10 14
10:30 1028 30.36 857 25.31 0.7 33.3 47 -9.3 15.3
10:35 1028 30.36 857 25.31 1 33.8 44 -9.8 14.3
10:40 1028 30.36 857 25.31 1.3 34.3 44 -9.7 14.5
10:45 1028 30.36 857 25.31 0.9 33.6 48 -9 15.7
10:50 1028 30.36 857 25.31 1.2 34.2 49 -8.3 17
10:55 1028 30.36 857 25.31 0.7 33.2 46 -9.6 14.7
11:00 1028 30.36 857 25.31 1.4 34.5 45 -9.4 15.1
11:05 1028 30.36 857 25.31 1.4 34.6 46 -8.9 16.1
11:10 1028 30.36 857 25.31 1.7 35.1 43 -9.6 14.8
11:15 1028 30.36 857 25.31 1.6 34.9 41 -10.3 13.5
11:20 1028 30.36 857 25.31 2.1 35.7 42 -9.5 14.9
11:25 1028 30.36 857 25.31 1.7 35 44 -9.4 15.1
11:30 1028 30.36 857 25.31 0.6 33.1 44 -10.4 13.2
11:35 1028 30.36 857 25.31 0.7 33.2 43 -10.4 13.2
11:40 1028 30.36 857 25.31 0.9 33.6 46 -9.4 15.1
11:45 1027 30.33 857 25.31 1.7 35.1 42 -9.7 14.5
11:50 1027 30.33 857 25.31 2.5 36.5 39 -10.2 13.7
11:55 1027 30.33 857 25.31 1.9 35.5 40 -10.2 13.7
12:00 1027 30.33 857 25.31 1.2 34.2 41 -10.6 12.9
12:05 1027 30.33 857 25.31 1.4 34.5 42 -10.3 13.5
12:10 1027 30.33 856 25.28 1.9 35.4 39 -10.7 12.7
12:15 1027 30.33 856 25.28 2.1 35.8 39 -10.5 13.1
12:20 1027 30.33 856 25.28 2.4 36.3 36 -11.2 11.8
12:25 1027 30.33 856 25.28 3.1 37.5 37 -10.4 13.3
12:30 1027 30.33 856 25.28 3.4 38.1 32 -11.9 10.6
12:35 1027 30.33 856 25.28 3.8 38.9 32 -11.4 11.5
12:40 1027 30.33 856 25.28 3.1 37.6 36 -10.7 12.7
12:45 1027 30.33 856 25.28 2.9 37.2 33 -12 10.4
12:50 1027 30.33 856 25.28 3.3 38 34 -11.1 12.1
12:55 1027 30.33 856 25.28 3.6 38.5 31 -12 10.4
13:00 1027 30.33 856 25.28 3 37.4 33 -11.7 11
13:05 1027 30.33 856 25.28 3 37.4 33 -11.7 10.9
13:10 1027 30.33 857 25.31 3.1 37.6 32 -12 10.4
13:15 1027 30.33 856 25.28 2.6 36.6 37 -10.8 12.5
13:20 1027 30.33 856 25.28 2.9 37.3 32 -12.2 10.1
13:25 1027 30.33 856 25.28 2.8 37.1 32 -12.3 9.9
13:30 1027 30.33 856 25.28 3.2 37.8 33 -11.8 10.8
13:35 1027 30.33 856 25.28 3.4 38.2 31 -12.1 10.3
13:40 1027 30.33 856 25.28 3.4 38 31 -12.2 10
13:45 1027 30.33 856 25.28 3.8 38.9 31 -12 10.4
13:50 1027 30.33 856 25.28 3.8 38.9 29 -12.6 9.2
13:55 1027 30.33 856 25.28 4.3 39.7 28 -12.6 9.4
14:00 1027 30.33 856 25.28 4.4 39.9 30 -11.9 10.5
14:05 1027 30.33 856 25.28 3.6 38.4 29 -12.8 9
14:10 1027 30.33 856 25.28 3.4 38.1 31 -12.3 9.8
14:15 1027 30.33 856 25.28 3.1 37.7 29 -13.2 8.3
14:20 1027 30.33 856 25.28 3.4 38.1 29 -13.2 8.3
14:25 1027 30.33 856 25.28 4 39.3 26 -13.9 7
14:30 1027 30.33 856 25.28 4.8 40.6 25 -13.4 7.8
14:35 1027 30.33 856 25.28 4.7 40.5 26 -13.4 8
14:40 1027 30.33 856 25.28 5.2 41.3 26 -12.9 8.7
14:45 1027 30.33 856 25.28 4.8 40.6 26 -13.1 8.4
14:50 1027 30.33 856 25.28 5 41 26 -12.8 8.9
14:55 1027 30.33 856 25.28 4 39.1 28 -13 8.7
15:00 1027 30.33 856 25.28 3.7 38.6 27 -13.7 7.3
15:05 1027 30.33 856 25.28 3.8 38.9 28 -13.1 8.3
15:10 1027 30.33 856 25.28 2.9 37.2 29 -13.5 7.8
15:15 1027 30.33 856 25.28 3.1 37.5 27 -14.1 6.6
15:20 1027 30.33 856 25.28 4.2 39.5 26 -13.7 7.3
15:25 1027 30.33 856 25.28 4.5 40.1 25 -14 6.8
15:30 1027 30.33 856 25.28 4.7 40.4 26 -13.2 8.2
15:35 1027 30.33 856 25.28 4.1 39.4 28 -12.8 8.9
15:40 1027 30.33 856 25.28 3 37.4 29 -13.6 7.5
15:45 1027 30.33 856 25.28 3.8 38.9 27 -13.7 7.3
15:50 1027 30.33 856 25.28 4.1 39.5 27 -13.3 8.1
15:55 1027 30.33 856 25.28 4.4 39.8 26 -13.6 7.4
16:00 1027 30.33 856 25.28 3.6 38.5 27 -13.6 7.5
16:05 1027 30.33 856 25.28 3.3 38 28 -13.4 7.9
16:10 1027 30.33 856 25.28 3.4 38.2 28 -13.6 7.5
16:15 1027 30.33 856 25.28 3.1 37.6 29 -13.5 7.7
16:20 1027 30.33 856 25.28 3.5 38.3 28 -13.4 8
16:25 1027 30.33 856 25.28 3.3 38 28 -13.6 7.5
16:30 1027 30.33 856 25.28 3 37.5 29 -13.5 7.7
16:35 1027 30.33 856 25.28 2.8 37 29 -13.6 7.5
16:40 1027 30.33 856 25.28 2.4 36.4 30 -13.4 7.9
16:45 1027 30.33 856 25.28 2.7 36.9 29 -13.6 7.5
16:50 1027 30.33 856 25.28 2.7 36.8 30 -13.3 8.1
16:55 1027 30.33 856 25.28 2.6 36.6 30 -13.6 7.6
17:00 1027 30.33 856 25.28 2 35.7 31 -13.4 7.9
17:05 1027 30.33 856 25.28 1.6 34.9 32 -13.3 8
17:10 1027 30.33 856 25.28 1.4 34.6 32 -13.5 7.6
17:15 1026 30.3 856 25.28 1.3 34.4 40 -10.9 12.3
17:20 1026 30.3 856 25.28 0.7 33.2 45 -10.1 13.8
17:25 1026 30.3 856 25.28 0.2 32.4 46 -10 14
17:30 1026 30.3 855 25.25 -0 32 48 -9.7 14.6
17:35 1026 30.3 855 25.25 -0.3 31.6 50 -9.5 15
17:40 1026 30.3 855 25.25 -0.5 31.2 51 -9.5 14.9
17:45 1026 30.3 855 25.25 -0.5 31.2 46 -10.6 12.9
17:50 1026 30.3 855 25.25 -0.2 31.6 45 -10.7 12.8
17:55 1026 30.3 855 25.25 0 32.1 43 -11.2 11.9
18:00 1026 30.3 855 25.25 -0 32 50 -9.3 15.2
18:05 1026 30.3 855 25.25 -0.3 31.5 51 -9.2 15.5
18:10 1026 30.3 855 25.25 -0.6 30.9 52 -9.4 15.1
18:15 1026 30.3 855 25.25 -0.8 30.5 46 -11 12.2
18:20 1026 30.3 856 25.28 -0.6 30.9 51 -9.5 14.9
18:25 1026 30.3 855 25.25 -0.6 30.9 48 -10.4 13.3
18:30 1026 30.3 855 25.25 -0.7 30.8 51 -9.5 14.9
18:35 1026 30.3 855 25.25 -0.9 30.4 51 -9.8 14.4
18:40 1026 30.3 855 25.25 -1.4 29.5 54 -9.6 14.7
18:45 1026 30.3 855 25.25 -1.7 29 54 -9.9 14.2
18:50 1026 30.3 855 25.25 -1.8 28.8 54 -10 14.1
18:55 1026 30.3 855 25.25 -1.9 28.5 55 -9.7 14.5
19:00 1026 30.3 855 25.25 -1.7 28.9 54 -9.9 14.1
19:05 1026 30.3 855 25.25 -1.3 29.6 53 -9.8 14.4
19:10 1026 30.3 855 25.25 -1.2 29.8 54 -9.4 15
19:15 1026 30.3 855 25.25 -1.2 29.8 54 -9.5 15
19:20 1026 30.3 855 25.25 -1.3 29.6 54 -9.5 14.9
19:25 1026 30.3 855 25.25 -1.7 28.9 53 -10 14
19:30 1026 30.3 855 25.25 -1.6 29.2 55 -9.4 15.1
19:35 1026 30.3 855 25.25 -2 28.4 57 -9.4 15.2
19:40 1026 30.3 855 25.25 -2.1 28.1 56 -9.7 14.5
19:45 1026 30.3 855 25.25 -2 28.5 55 -10 14.1
19:50 1026 30.3 855 25.25 -2 28.4 56 -9.5 14.8
19:55 1026 30.3 855 25.25 -2.3 27.9 57 -9.8 14.4
20:00 1026 30.3 855 25.25 -2.3 27.9 55 -10 13.9
20:05 1026 30.3 855 25.25 -1.9 28.5 55 -9.9 14.1
20:10 1026 30.3 855 25.25 -1.5 29.2 53 -9.9 14.2
20:15 1026 30.3 855 25.25 -1.3 29.7 52 -9.9 14.1
20:20 1026 30.3 855 25.25 -1.2 29.8 53 -9.7 14.5
20:25 1026 30.3 855 25.25 -1.4 29.5 52 -9.9 14.1
20:30 1026 30.3 855 25.25 -1.1 30.1 52 -9.7 14.6
20:35 1026 30.3 855 25.25 -1 30.2 53 -9.4 15
20:40 1026 30.3 855 25.25 -1.2 29.9 55 -9.2 15.5
20:45 1026 30.3 855 25.25 -1.5 29.3 55 -9.4 15.1
20:50 1026 30.3 855 25.25 -1.4 29.4 55 -9.4 15
20:55 1025 30.27 855 25.25 -1.3 29.6 54 -9.4 15.1
21:00 1025 30.27 855 25.25 -1.3 29.7 52 -9.8 14.3
21:05 1025 30.27 855 25.25 -1.1 30 54 -9.4 15
21:10 1026 30.3 855 25.25 -1 30.2 52 -9.6 14.7
21:15 1025 30.27 855 25.25 -1.1 30.1 53 -9.5 15
21:20 1025 30.27 855 25.25 -1.2 29.9 53 -9.5 14.9
21:25 1026 30.3 855 25.25 -1.2 29.8 53 -9.7 14.6
21:30 1025 30.27 855 25.25 -1.2 29.9 53 -9.5 14.9
21:35 1025 30.27 855 25.25 -1 30.1 55 -8.9 15.9
21:40 1026 30.3 855 25.25 -1.1 30 56 -8.9 16
21:45 1025 30.27 855 25.25 -1.2 29.9 57 -8.5 16.6
21:50 1025 30.27 855 25.25 -1.2 29.8 57 -8.7 16.4
21:55 1025 30.27 855 25.25 -1.1 30 54 -9.2 15.5
22:00 1026 30.3 855 25.25 -0.8 30.6 53 -9.1 15.6
22:05 1026 30.3 855 25.25 -0.5 31.1 55 -8.6 16.6
22:10 1025 30.27 855 25.25 -0.1 31.7 55 -8.2 17.2
22:15 1025 30.27 855 25.25 0.1 32.1 55 -8 17.5
22:20 1025 30.27 855 25.25 0.2 32.4 55 -7.8 18
22:25 1025 30.27 855 25.25 0.4 32.7 54 -7.8 18
22:30 1026 30.3 855 25.25 0.4 32.8 57 -7.2 19.1
22:35 1026 30.3 855 25.25 0.4 32.6 57 -7.2 19
22:40 1025 30.27 855 25.25 0.5 32.8 56 -7.3 18.8
22:45 1025 30.27 855 25.25 0.5 32.8 58 -7 19.4
22:50 1026 30.3 855 25.25 0.5 32.9 58 -6.9 19.6
22:55 1026 30.3 855 25.25 0.9 33.6 53 -7.6 18.3
23:00 1026 30.3 855 25.25 1.4 34.5 52 -7.5 18.6
23:05 1026 30.3 855 25.25 1.6 34.8 52 -7.3 18.9
23:10 1025 30.27 855 25.25 1.6 34.9 51 -7.3 18.8
23:15 1025 30.27 855 25.25 1.7 35.1 56 -6.3 20.7
23:20 1025 30.27 855 25.25 1.4 34.5 59 -5.6 21.8
23:25 1025 30.27 855 25.25 1.2 34.2 63 -5.2 22.7
23:30 1025 30.27 855 25.25 0.9 33.6 66 -4.6 23.6
23:35 1025 30.27 855 25.25 0.6 33.1 69 -4.4 24.1
23:40 1025 30.27 855 25.25 0.3 32.6 71 -4.3 24.2
23:45 1025 30.27 855 25.25 -0.1 31.9 76 -3.8 25.2
23:50 1025 30.27 855 25.25 -0.4 31.3 80 -3.5 25.8
23:55 1025 30.27 854 25.22 -0.6 30.9 81 -3.6 25.6
24:00 1025 30.27 854 25.22 -1.1 30 85 -3.2 26.2